Terminal Aerodrome Forecast
Issued by NWS

Home | Current Version | Previous Version | Text Only | Print | Product List | Glossary On
Versions: 1 2 3 4 5 6 7 8 9 10 11 12 13
520
FTUS43 KPAH 301720
TAFCGI
TAF
KCGI 301720Z 3018/0118 17008KT P6SM FEW035 BKN200
     FM010100 17007KT P6SM VCTS BKN040CB
     FM010500 16004KT 6SM BR SCT012 BKN025
     FM011400 23005KT P6SM BKN025=

USA.gov is the U.S. government's official web portal to all federal, state and local government web resources and services.